Time;durP1;ratioP1;P1;durP2;ratioP2;P2;SDS_P1;SDS_P2;PMS_P1;PMS_P2;Temp;Humidity;BMP_temperature;BMP_pressure;BME280_temperature;BME280_humidity;BME280_pressure;Samples;Min_cycle;Max_cycle;Signal;HPM_P1;HPM_P2
2022/02/20 00:01:53;;;;;;;0.10;0.10;;;;;;;;;;4098527;29;20182;-58
2022/02/20 00:03:55;;;;;;;0.10;0.10;;;;;;;;;;4116391;28;20054;-57
2022/02/20 00:05:56;;;;;;;0.10;0.10;;;;;;;;;;4116260;28;20059;-58
2022/02/20 00:07:57;;;;;;;0.00;0.00;;;;;;;;;;4098914;29;20067;-56
2022/02/20 00:09:58;;;;;;;0.17;0.10;;;;;;;;;;4131074;28;20596;-58
2022/02/20 00:11:59;;;;;;;0.10;0.10;;;;;;;;;;4116050;28;20063;-57
2022/02/20 00:14:00;;;;;;;0.00;0.00;;;;;;;;;;4115931;28;20117;-58
2022/02/20 00:16:02;;;;;;;0.10;0.10;;;;;;;;;;4116029;28;20113;-58
2022/02/20 00:18:03;;;;;;;0.00;0.00;;;;;;;;;;4115611;28;20062;-58
2022/02/20 00:20:05;;;;;;;0.10;0.10;;;;;;;;;;4114600;28;20526;-58
2022/02/20 00:22:06;;;;;;;0.10;0.10;;;;;;;;;;4115799;28;20065;-57
2022/02/20 00:24:08;;;;;;;0.10;0.10;;;;;;;;;;4116103;28;20105;-58
2022/02/20 00:26:09;;;;;;;0.82;0.13;;;;;;;;;;4110000;28;20458;-56
2022/02/20 00:28:10;;;;;;;0.10;0.10;;;;;;;;;;4140755;28;20096;-57
2022/02/20 00:30:11;;;;;;;0.10;0.10;;;;;;;;;;4130522;28;20055;-57
2022/02/20 00:32:12;;;;;;;0.55;0.20;;;;;;;;;;4147660;28;20504;-57
2022/02/20 00:34:13;;;;;;;0.03;0.03;;;;;;;;;;4147991;28;20080;-58
2022/02/20 00:36:15;;;;;;;0.10;0.10;;;;;;;;;;4119060;28;20069;-58
2022/02/20 00:38:17;;;;;;;0.20;0.10;;;;;;;;;;4110463;28;20487;-58
2022/02/20 00:40:18;;;;;;;0.10;0.10;;;;;;;;;;4122077;28;20059;-58
2022/02/20 00:42:20;;;;;;;0.00;0.00;;;;;;;;;;4113833;28;20054;-57
2022/02/20 00:44:21;;;;;;;0.10;0.10;;;;;;;;;;4113851;28;20062;-56
2022/02/20 00:46:23;;;;;;;0.10;0.10;;;;;;;;;;4113747;28;20066;-56
2022/02/20 00:48:24;;;;;;;0.10;0.10;;;;;;;;;;4113309;28;20054;-58
2022/02/20 00:50:26;;;;;;;0.10;0.10;;;;;;;;;;4113252;28;20081;-57
2022/02/20 00:52:27;;;;;;;0.10;0.10;;;;;;;;;;4113344;28;20094;-58
2022/02/20 00:54:28;;;;;;;0.10;0.10;;;;;;;;;;4113517;28;20436;-58
2022/02/20 00:56:30;;;;;;;0.08;0.08;;;;;;;;;;4102875;28;20121;-58
2022/02/20 00:58:32;;;;;;;0.10;0.10;;;;;;;;;;4121764;28;20101;-56
2022/02/20 01:00:33;;;;;;;0.10;0.10;;;;;;;;;;4131530;28;20062;-58
2022/02/20 01:02:34;;;;;;;0.10;0.10;;;;;;;;;;4113456;28;20063;-58
2022/02/20 01:04:35;;;;;;;0.10;0.08;;;;;;;;;;4114278;28;20109;-57
2022/02/20 01:06:36;;;;;;;0.10;0.10;;;;;;;;;;4131291;28;20062;-58
2022/02/20 01:08:38;;;;;;;0.10;0.10;;;;;;;;;;4114164;28;20090;-58
2022/02/20 01:10:39;;;;;;;0.10;0.10;;;;;;;;;;4129523;28;20100;-57
2022/02/20 01:12:40;;;;;;;0.08;0.08;;;;;;;;;;4117249;28;20125;-57
2022/02/20 01:14:43;;;;;;;0.10;0.10;;;;;;;;;;4141613;28;20053;-56
2022/02/20 01:16:44;;;;;;;0.10;0.00;;;;;;;;;;4144581;28;20066;-57
2022/02/20 01:18:46;;;;;;;0.10;0.10;;;;;;;;;;4128004;28;20058;-58
2022/02/20 01:20:47;;;;;;;0.10;0.10;;;;;;;;;;4127857;28;20063;-56
2022/02/20 01:22:48;;;;;;;0.08;0.08;;;;;;;;;;4145030;28;20111;-57
2022/02/20 01:24:51;;;;;;;0.10;0.10;;;;;;;;;;4145388;28;20065;-56
2022/02/20 01:26:52;;;;;;;0.10;0.10;;;;;;;;;;4112476;28;20565;-57
2022/02/20 01:28:53;;;;;;;0.00;0.00;;;;;;;;;;4129727;28;20054;-56
2022/02/20 01:30:55;;;;;;;0.10;0.10;;;;;;;;;;4130844;28;20410;-57
2022/02/20 01:32:56;;;;;;;0.10;0.10;;;;;;;;;;4113250;28;20054;-57
2022/02/20 01:34:58;;;;;;;0.00;0.00;;;;;;;;;;4112420;28;20336;-58
2022/02/20 01:36:59;;;;;;;0.00;0.00;;;;;;;;;;4124002;28;20058;-58
2022/02/20 01:39:00;;;;;;;0.10;0.10;;;;;;;;;;4097602;29;20125;-57
2022/02/20 01:41:02;;;;;;;0.20;0.20;;;;;;;;;;4112570;28;20434;-57
2022/02/20 01:43:04;;;;;;;0.15;0.10;;;;;;;;;;4114719;28;20054;-56
2022/02/20 01:45:11;;;;;;;0.22;0.10;;;;;;;;;;4097581;29;20067;-56
2022/02/20 01:47:14;;;;;;;0.10;0.10;;;;;;;;;;4114135;28;20055;-56
2022/02/20 01:49:18;;;;;;;0.10;0.10;;;;;;;;;;4114534;28;20494;-56
2022/02/20 01:51:22;;;;;;;0.10;0.10;;;;;;;;;;4111917;28;20043;-57
2022/02/20 01:53:25;;;;;;;0.10;0.10;;;;;;;;;;4097161;29;20066;-57
2022/02/20 01:55:26;;;;;;;0.20;0.20;;;;;;;;;;4081440;29;20520;-57
2022/02/20 01:57:42;;;;;;;0.10;0.10;;;;;;;;;;4097321;29;20055;-56
2022/02/20 02:00:05;;;;;;;0.22;0.10;;;;;;;;;;4098597;29;20086;-56
2022/02/20 02:02:19;;;;;;;0.10;0.10;;;;;;;;;;4097019;29;20145;-57
2022/02/20 02:04:30;;;;;;;0.00;0.00;;;;;;;;;;4081627;29;20060;-56
2022/02/20 02:06:38;;;;;;;0.22;0.10;;;;;;;;;;4081360;29;20443;-57
2022/02/20 02:08:40;;;;;;;0.08;0.08;;;;;;;;;;4097510;29;20078;-57
2022/02/20 02:11:01;;;;;;;0.10;0.10;;;;;;;;;;4084121;29;20074;-57
2022/02/20 02:13:21;;;;;;;0.10;0.10;;;;;;;;;;4098090;29;20055;-55
2022/02/20 02:15:31;;;;;;;0.10;0.10;;;;;;;;;;4095604;29;20129;-57
2022/02/20 02:17:56;;;;;;;0.10;0.10;;;;;;;;;;4061792;29;20106;-55
2022/02/20 02:20:10;;;;;;;0.10;0.10;;;;;;;;;;4080986;29;20067;-56
2022/02/20 02:22:49;;;;;;;0.10;0.10;;;;;;;;;;4048989;29;20171;-56
2022/02/20 02:25:03;;;;;;;0.10;0.10;;;;;;;;;;4049037;29;20112;-57
2022/02/20 02:27:27;;;;;;;0.17;0.10;;;;;;;;;;4052943;29;20388;-56
2022/02/20 02:29:48;;;;;;;0.30;0.00;;;;;;;;;;4098200;29;20078;-56
2022/02/20 02:31:49;;;;;;;0.08;0.08;;;;;;;;;;4096381;29;20110;-57
2022/02/20 02:33:50;;;;;;;0.10;0.10;;;;;;;;;;4096775;29;20059;-56
2022/02/20 02:35:52;;;;;;;0.10;0.10;;;;;;;;;;4104925;28;20162;-56
2022/02/20 02:37:54;;;;;;;0.05;0.05;;;;;;;;;;4113119;28;20062;-57
2022/02/20 02:39:57;;;;;;;0.10;0.10;;;;;;;;;;4119130;28;20178;-57
2022/02/20 02:41:59;;;;;;;0.00;0.00;;;;;;;;;;4112543;28;20490;-56
2022/02/20 02:44:03;;;;;;;0.00;0.00;;;;;;;;;;4128542;28;20458;-56
2022/02/20 02:46:05;;;;;;;0.15;0.10;;;;;;;;;;4128660;28;20434;-56
2022/02/20 02:48:07;;;;;;;0.08;0.08;;;;;;;;;;4128115;28;20062;-55
2022/02/20 02:50:11;;;;;;;0.20;0.10;;;;;;;;;;4102689;28;20056;-56
2022/02/20 02:52:12;;;;;;;0.25;0.00;;;;;;;;;;4129619;28;20561;-57
2022/02/20 02:54:22;;;;;;;0.10;0.10;;;;;;;;;;4129895;28;20054;-57
2022/02/20 02:56:23;;;;;;;;;;;;;;;;;;4113097;28;20113;-56
2022/02/20 02:58:25;;;;;;;0.20;0.10;;;;;;;;;;4128278;28;19922;-57
2022/02/20 03:00:31;;;;;;;0.20;0.10;;;;;;;;;;4112462;28;20443;-56
2022/02/20 03:02:32;;;;;;;0.00;0.00;;;;;;;;;;4111105;28;20122;-55
2022/02/20 03:04:34;;;;;;;0.20;0.20;;;;;;;;;;4122929;28;20062;-56
2022/02/20 03:06:36;;;;;;;0.17;0.10;;;;;;;;;;4096392;28;20067;-57
2022/02/20 03:08:42;;;;;;;1.10;0.10;;;;;;;;;;4096528;29;20562;-55
2022/02/20 03:10:44;;;;;;;0.10;0.10;;;;;;;;;;4112578;28;20117;-56
2022/02/20 03:12:49;;;;;;;0.17;0.10;;;;;;;;;;4128247;28;20577;-57
2022/02/20 03:14:51;;;;;;;0.00;0.00;;;;;;;;;;4096351;29;20574;-58
2022/02/20 03:16:53;;;;;;;0.10;0.10;;;;;;;;;;4096217;29;20117;-58
2022/02/20 03:18:54;;;;;;;0.10;0.10;;;;;;;;;;4096539;29;20179;-56
2022/02/20 03:20:59;;;;;;;0.13;0.10;;;;;;;;;;4096415;29;20110;-57
2022/02/20 03:23:00;;;;;;;0.20;0.20;;;;;;;;;;4128351;28;20069;-58
2022/02/20 03:25:01;;;;;;;0.10;0.10;;;;;;;;;;4116020;28;20062;-57
2022/02/20 03:27:03;;;;;;;0.00;0.00;;;;;;;;;;4124809;28;20062;-55
2022/02/20 03:29:09;;;;;;;0.08;0.08;;;;;;;;;;4128343;28;20498;-56
2022/02/20 03:31:10;;;;;;;0.10;0.10;;;;;;;;;;4112328;28;20050;-57
2022/02/20 03:33:12;;;;;;;0.10;0.00;;;;;;;;;;4121744;28;20117;-57
2022/02/20 03:35:13;;;;;;;0.10;0.10;;;;;;;;;;4129385;28;20066;-57
2022/02/20 03:37:14;;;;;;;0.10;0.10;;;;;;;;;;4129367;28;20109;-56
2022/02/20 03:39:18;;;;;;;0.00;0.00;;;;;;;;;;4128476;28;20121;-57
2022/02/20 03:41:19;;;;;;;0.20;0.10;;;;;;;;;;4111917;28;20491;-56
2022/02/20 03:43:20;;;;;;;0.10;0.10;;;;;;;;;;4112288;28;20055;-58
2022/02/20 03:45:30;;;;;;;0.20;0.03;;;;;;;;;;4128530;28;20058;-58
2022/02/20 03:47:31;;;;;;;0.10;0.10;;;;;;;;;;4143863;28;20058;-57
2022/02/20 03:49:35;;;;;;;0.10;0.00;;;;;;;;;;4128281;28;20089;-57
2022/02/20 03:52:00;;;;;;;0.03;0.03;;;;;;;;;;4145004;28;20104;-58
2022/02/20 03:54:14;;;;;;;0.00;0.00;;;;;;;;;;4128258;28;20443;-57
2022/02/20 03:56:16;;;;;;;0.10;0.10;;;;;;;;;;4128235;28;20087;-57
2022/02/20 03:58:22;;;;;;;0.10;0.10;;;;;;;;;;4128069;28;20054;-58
2022/02/20 04:00:27;;;;;;;0.00;0.00;;;;;;;;;;4137873;28;20050;-57
2022/02/20 04:02:41;;;;;;;0.10;0.10;;;;;;;;;;4132271;28;20066;-56
2022/02/20 04:04:42;;;;;;;0.00;0.00;;;;;;;;;;4112955;28;20054;-57
2022/02/20 04:06:43;;;;;;;0.20;0.10;;;;;;;;;;4132194;28;20050;-57
2022/02/20 04:08:45;;;;;;;0.10;0.03;;;;;;;;;;4114970;28;20098;-56
2022/02/20 04:10:47;;;;;;;0.10;0.10;;;;;;;;;;4114818;28;20059;-56
2022/02/20 04:12:56;;;;;;;0.00;0.00;;;;;;;;;;4114753;28;20094;-56
2022/02/20 04:15:00;;;;;;;0.30;0.10;;;;;;;;;;4114991;28;20446;-57
2022/02/20 04:17:02;;;;;;;0.00;0.00;;;;;;;;;;4098206;29;20107;-57
2022/02/20 04:19:03;;;;;;;0.00;0.00;;;;;;;;;;4114813;28;20212;-57
2022/02/20 04:21:06;;;;;;;0.10;0.10;;;;;;;;;;4132118;28;20065;-57
2022/02/20 04:23:09;;;;;;;0.08;0.08;;;;;;;;;;4102154;28;20113;-56
2022/02/20 04:25:12;;;;;;;0.10;0.10;;;;;;;;;;4137398;28;20521;-58
2022/02/20 04:27:14;;;;;;;0.17;0.10;;;;;;;;;;4130360;28;20085;-57
2022/02/20 04:29:18;;;;;;;0.20;0.10;;;;;;;;;;4130664;28;20058;-58
2022/02/20 04:31:20;;;;;;;0.10;0.10;;;;;;;;;;4114531;28;20495;-56
2022/02/20 04:33:25;;;;;;;0.08;0.08;;;;;;;;;;4114136;28;20091;-57
2022/02/20 04:35:33;;;;;;;0.08;0.08;;;;;;;;;;4133779;28;20505;-57
2022/02/20 04:37:34;;;;;;;0.10;0.10;;;;;;;;;;4146564;28;20065;-57
2022/02/20 04:39:35;;;;;;;0.10;0.10;;;;;;;;;;4129343;28;20050;-57
2022/02/20 04:41:38;;;;;;;0.13;0.13;;;;;;;;;;4122748;28;20157;-56
2022/02/20 04:43:44;;;;;;;0.10;0.10;;;;;;;;;;4130463;28;20549;-56
2022/02/20 04:45:46;;;;;;;0.00;0.00;;;;;;;;;;4131535;28;20104;-57
2022/02/20 04:47:51;;;;;;;0.15;0.05;;;;;;;;;;4113857;28;20121;-57
2022/02/20 04:49:56;;;;;;;0.28;0.10;;;;;;;;;;4114264;28;20526;-56
2022/02/20 04:52:11;;;;;;;0.10;0.10;;;;;;;;;;4131447;28;20058;-58
2022/02/20 04:54:42;;;;;;;0.20;0.10;;;;;;;;;;4118581;28;20050;-56
2022/02/20 04:56:43;;;;;;;0.10;0.10;;;;;;;;;;4114099;28;20101;-57
2022/02/20 04:58:45;;;;;;;0.03;0.03;;;;;;;;;;4114083;28;20428;-57
2022/02/20 05:01:05;;;;;;;0.13;0.05;;;;;;;;;;4130098;28;20442;-55
2022/02/20 05:03:29;;;;;;;0.03;0.03;;;;;;;;;;4130831;28;20062;-58
2022/02/20 05:05:54;;;;;;;0.00;0.00;;;;;;;;;;4114218;28;20220;-57
2022/02/20 05:08:05;;;;;;;0.00;0.00;;;;;;;;;;4129935;28;20109;-57
2022/02/20 05:10:07;;;;;;;0.22;0.00;;;;;;;;;;4130201;28;20098;-56
2022/02/20 05:12:08;;;;;;;0.10;0.00;;;;;;;;;;4129880;28;20391;-57
2022/02/20 05:14:10;;;;;;;0.22;0.10;;;;;;;;;;4130214;28;20082;-56
2022/02/20 05:16:11;;;;;;;0.15;0.08;;;;;;;;;;4129117;28;20058;-57
2022/02/20 05:18:16;;;;;;;0.30;0.13;;;;;;;;;;4113320;28;20399;-56
2022/02/20 05:20:18;;;;;;;0.35;0.13;;;;;;;;;;4113732;28;20117;-58
2022/02/20 05:22:23;;;;;;;0.00;0.00;;;;;;;;;;4129842;28;20116;-57
2022/02/20 05:24:28;;;;;;;0.15;0.10;;;;;;;;;;4131960;28;20109;-56
2022/02/20 05:26:29;;;;;;;0.10;0.00;;;;;;;;;;4121892;28;20055;-57
2022/02/20 05:28:33;;;;;;;0.20;0.15;;;;;;;;;;4129736;28;20054;-57
2022/02/20 05:30:39;;;;;;;0.10;0.10;;;;;;;;;;4131326;28;20054;-56
2022/02/20 05:32:50;;;;;;;0.08;0.08;;;;;;;;;;4137549;28;20161;-57
2022/02/20 05:34:59;;;;;;;0.00;0.00;;;;;;;;;;4114173;28;20054;-55
2022/02/20 05:37:03;;;;;;;0.10;0.10;;;;;;;;;;4129549;28;20054;-57
2022/02/20 05:39:14;;;;;;;0.00;0.00;;;;;;;;;;4129682;28;20422;-57
2022/02/20 05:41:16;;;;;;;0.32;0.22;;;;;;;;;;4139205;28;20053;-57
2022/02/20 05:43:18;;;;;;;0.08;0.08;;;;;;;;;;4145553;28;20104;-58
2022/02/20 05:45:24;;;;;;;0.10;0.10;;;;;;;;;;4145701;28;20053;-57
2022/02/20 05:47:25;;;;;;;0.10;0.10;;;;;;;;;;4145148;28;20423;-57
2022/02/20 05:49:27;;;;;;;0.20;0.10;;;;;;;;;;4129384;28;20454;-57
2022/02/20 05:51:34;;;;;;;0.10;0.08;;;;;;;;;;4145634;28;20054;-57
2022/02/20 05:53:41;;;;;;;0.05;0.05;;;;;;;;;;4129333;28;20062;-57
2022/02/20 05:55:44;;;;;;;0.10;0.10;;;;;;;;;;4129325;28;20065;-55
2022/02/20 05:57:48;;;;;;;0.00;0.00;;;;;;;;;;4129169;28;20109;-57
2022/02/20 05:59:52;;;;;;;0.10;0.10;;;;;;;;;;4129176;28;20093;-55
2022/02/20 06:01:53;;;;;;;0.00;0.00;;;;;;;;;;4128750;28;20787;-58
2022/02/20 06:03:57;;;;;;;0.00;0.00;;;;;;;;;;4145495;28;20192;-56
2022/02/20 06:06:13;;;;;;;0.00;0.00;;;;;;;;;;4145552;28;20426;-57
2022/02/20 06:08:39;;;;;;;0.10;0.10;;;;;;;;;;4145379;28;20548;-57
2022/02/20 06:10:49;;;;;;;0.10;0.10;;;;;;;;;;4129181;28;20055;-57
2022/02/20 06:13:17;;;;;;;0.10;0.10;;;;;;;;;;4128933;28;20525;-57
2022/02/20 06:15:36;;;;;;;;;;;;;;;;;;4129539;28;20058;-58
2022/02/20 06:17:49;;;;;;;0.20;0.20;;;;;;;;;;4145002;28;19921;-57
2022/02/20 06:20:08;;;;;;;0.20;0.10;;;;;;;;;;4128978;28;20062;-56
2022/02/20 06:22:19;;;;;;;0.00;0.00;;;;;;;;;;4113966;28;20495;-56
2022/02/20 06:24:39;;;;;;;0.20;0.10;;;;;;;;;;4146709;28;20069;-57
2022/02/20 06:27:06;;;;;;;0.10;0.10;;;;;;;;;;4142886;28;20568;-57
2022/02/20 06:29:07;;;;;;;0.00;0.00;;;;;;;;;;4128991;28;20058;-58
2022/02/20 06:31:09;;;;;;;0.00;0.00;;;;;;;;;;4145042;28;20169;-57
2022/02/20 06:33:13;;;;;;;0.10;0.10;;;;;;;;;;4128584;28;20054;-57
2022/02/20 06:35:14;;;;;;;0.08;0.08;;;;;;;;;;4142809;28;20544;-56
2022/02/20 06:37:16;;;;;;;0.10;0.10;;;;;;;;;;4130096;28;20112;-55
2022/02/20 06:39:17;;;;;;;0.05;0.05;;;;;;;;;;4128572;28;20057;-57
2022/02/20 06:41:19;;;;;;;0.00;0.00;;;;;;;;;;4112622;28;20054;-56
2022/02/20 06:43:24;;;;;;;0.20;0.10;;;;;;;;;;4112304;28;20418;-56
2022/02/20 06:45:45;;;;;;;0.10;0.10;;;;;;;;;;4129879;28;20062;-56
2022/02/20 06:48:01;;;;;;;0.10;0.10;;;;;;;;;;4128043;28;20117;-57
2022/02/20 06:50:23;;;;;;;0.00;0.00;;;;;;;;;;4129397;28;20145;-57
2022/02/20 06:52:53;;;;;;;0.15;0.10;;;;;;;;;;4117523;28;20061;-56
2022/02/20 06:55:13;;;;;;;0.10;0.10;;;;;;;;;;4129827;28;20585;-56
2022/02/20 06:57:35;;;;;;;0.10;0.10;;;;;;;;;;4130195;28;20057;-58
2022/02/20 06:59:36;;;;;;;0.20;0.20;;;;;;;;;;4129810;28;20054;-58
2022/02/20 07:01:37;;;;;;;0.10;0.08;;;;;;;;;;4129040;28;20073;-57
2022/02/20 07:03:39;;;;;;;0.30;0.20;;;;;;;;;;4128387;28;20069;-57
2022/02/20 07:05:41;;;;;;;0.10;0.10;;;;;;;;;;4112327;28;20443;-56
2022/02/20 07:07:42;;;;;;;0.10;0.10;;;;;;;;;;4129749;28;20128;-58
2022/02/20 07:09:43;;;;;;;0.10;0.10;;;;;;;;;;4129935;28;20062;-57
2022/02/20 07:11:44;;;;;;;0.00;0.00;;;;;;;;;;4129473;28;20387;-57
2022/02/20 07:13:45;;;;;;;0.08;0.08;;;;;;;;;;4129793;28;20121;-57
2022/02/20 07:15:48;;;;;;;0.40;0.10;;;;;;;;;;4128232;28;20545;-57
2022/02/20 07:17:49;;;;;;;0.10;0.10;;;;;;;;;;4127702;28;20078;-56
2022/02/20 07:19:50;;;;;;;0.00;0.00;;;;;;;;;;4112514;28;20057;-57
2022/02/20 07:21:51;;;;;;;0.00;0.00;;;;;;;;;;4129370;28;20054;-57
2022/02/20 07:23:53;;;;;;;0.10;0.10;;;;;;;;;;4112089;28;20059;-57
2022/02/20 07:25:54;;;;;;;0.10;0.10;;;;;;;;;;4129459;28;20069;-57
2022/02/20 07:27:55;;;;;;;0.20;0.10;;;;;;;;;;4129441;28;20089;-57
2022/02/20 07:29:56;;;;;;;0.00;0.00;;;;;;;;;;4129524;28;20069;-56
2022/02/20 07:31:57;;;;;;;0.00;0.00;;;;;;;;;;4128984;28;20063;-57
2022/02/20 07:34:00;;;;;;;0.20;0.10;;;;;;;;;;4129463;28;20046;-56
2022/02/20 07:36:02;;;;;;;0.05;0.05;;;;;;;;;;4129279;28;20124;-56
2022/02/20 07:38:03;;;;;;;0.10;0.10;;;;;;;;;;4129392;28;20054;-56
2022/02/20 07:40:06;;;;;;;0.10;0.10;;;;;;;;;;4147018;28;20057;-57
2022/02/20 07:42:07;;;;;;;0.00;0.00;;;;;;;;;;4148768;28;20046;-57
2022/02/20 07:44:08;;;;;;;0.10;0.10;;;;;;;;;;4147729;28;20092;-57
2022/02/20 07:46:10;;;;;;;0.10;0.10;;;;;;;;;;4148579;28;20060;-57
2022/02/20 07:48:11;;;;;;;0.10;0.10;;;;;;;;;;4148030;28;20517;-57
2022/02/20 07:50:12;;;;;;;0.08;0.08;;;;;;;;;;4148566;28;20053;-57
2022/02/20 07:52:14;;;;;;;0.30;0.00;;;;;;;;;;4147457;28;20054;-57
2022/02/20 07:54:15;;;;;;;0.20;0.15;;;;;;;;;;4148453;28;20053;-56
2022/02/20 07:56:17;;;;;;;0.03;0.03;;;;;;;;;;4147250;28;20053;-55
2022/02/20 07:58:20;;;;;;;0.00;0.00;;;;;;;;;;4148569;28;20061;-55
2022/02/20 08:00:22;;;;;;;0.03;0.03;;;;;;;;;;4148415;28;20069;-57
2022/02/20 08:02:23;;;;;;;0.00;0.00;;;;;;;;;;4148124;28;20116;-57
2022/02/20 08:04:25;;;;;;;0.10;0.00;;;;;;;;;;4148608;28;20575;-56
2022/02/20 08:06:26;;;;;;;0.10;0.10;;;;;;;;;;4148464;28;20120;-57
2022/02/20 08:08:28;;;;;;;0.10;0.10;;;;;;;;;;4148195;28;20493;-57
2022/02/20 08:10:29;;;;;;;0.10;0.10;;;;;;;;;;4130747;28;20093;-57
2022/02/20 08:12:30;;;;;;;0.10;0.10;;;;;;;;;;4148166;28;20057;-58
2022/02/20 08:14:31;;;;;;;0.20;0.10;;;;;;;;;;4148450;28;20100;-56
2022/02/20 08:16:32;;;;;;;0.25;0.10;;;;;;;;;;4146841;28;20053;-55
2022/02/20 08:18:34;;;;;;;0.10;0.10;;;;;;;;;;4147943;28;20054;-57
2022/02/20 08:20:35;;;;;;;0.20;0.10;;;;;;;;;;4148392;28;20053;-57
2022/02/20 08:22:36;;;;;;;0.03;0.03;;;;;;;;;;4148190;28;20054;-56
2022/02/20 08:24:37;;;;;;;0.15;0.15;;;;;;;;;;4130849;28;20283;-55
2022/02/20 08:26:38;;;;;;;0.05;0.05;;;;;;;;;;4147898;28;20119;-56
2022/02/20 08:28:39;;;;;;;0.10;0.10;;;;;;;;;;4146979;28;20062;-56
2022/02/20 08:30:41;;;;;;;0.08;0.08;;;;;;;;;;4130768;28;20098;-57
2022/02/20 08:32:42;;;;;;;0.20;0.20;;;;;;;;;;4147474;28;20057;-56
2022/02/20 08:34:43;;;;;;;0.45;0.10;;;;;;;;;;4147871;28;20053;-57
2022/02/20 08:36:44;;;;;;;0.10;0.10;;;;;;;;;;4132371;28;20058;-57
2022/02/20 08:38:45;;;;;;;0.00;0.00;;;;;;;;;;4114280;28;20125;-57
2022/02/20 08:40:46;;;;;;;0.03;0.03;;;;;;;;;;4131582;28;20058;-56
2022/02/20 08:42:48;;;;;;;0.10;0.10;;;;;;;;;;4131985;28;20089;-57
2022/02/20 08:44:49;;;;;;;0.05;0.05;;;;;;;;;;4131580;28;20514;-56
2022/02/20 08:46:50;;;;;;;0.22;0.10;;;;;;;;;;4131357;28;20065;-57
2022/02/20 08:48:51;;;;;;;0.10;0.00;;;;;;;;;;4131895;28;20106;-56
2022/02/20 08:50:52;;;;;;;0.00;0.00;;;;;;;;;;4131177;28;20121;-55
2022/02/20 08:52:54;;;;;;;0.00;0.00;;;;;;;;;;4131696;28;20105;-57
2022/02/20 08:54:55;;;;;;;0.10;0.10;;;;;;;;;;4131526;28;20560;-56
2022/02/20 08:56:56;;;;;;;0.10;0.10;;;;;;;;;;4131651;28;20137;-57
2022/02/20 08:59:00;;;;;;;0.10;0.10;;;;;;;;;;4131403;28;20066;-58
2022/02/20 09:01:02;;;;;;;0.00;0.00;;;;;;;;;;4131508;28;20074;-57
2022/02/20 09:03:03;;;;;;;0.10;0.10;;;;;;;;;;4130873;28;20116;-57
2022/02/20 09:05:04;;;;;;;0.05;0.05;;;;;;;;;;4146516;28;20081;-57
2022/02/20 09:07:07;;;;;;;0.20;0.10;;;;;;;;;;4129899;28;20058;-56
2022/02/20 09:09:08;;;;;;;0.10;0.10;;;;;;;;;;4131318;28;20076;-57
2022/02/20 09:11:09;;;;;;;0.15;0.10;;;;;;;;;;4131203;28;20104;-57
2022/02/20 09:13:11;;;;;;;0.10;0.10;;;;;;;;;;4131228;28;20054;-57
2022/02/20 09:15:12;;;;;;;0.05;0.05;;;;;;;;;;4131211;28;20055;-57
2022/02/20 09:17:13;;;;;;;0.03;0.03;;;;;;;;;;4130693;28;20083;-58
2022/02/20 09:19:14;;;;;;;0.10;0.10;;;;;;;;;;4129939;28;20062;-58
2022/02/20 09:21:15;;;;;;;0.00;0.00;;;;;;;;;;4130895;28;20490;-55
2022/02/20 09:23:16;;;;;;;0.10;0.10;;;;;;;;;;4129587;28;20078;-57
2022/02/20 09:25:17;;;;;;;0.10;0.10;;;;;;;;;;4131035;28;20414;-57
2022/02/20 09:27:18;;;;;;;0.10;0.10;;;;;;;;;;4145716;28;20090;-57
2022/02/20 09:29:20;;;;;;;0.00;0.00;;;;;;;;;;4147220;28;20058;-57
2022/02/20 09:31:21;;;;;;;0.10;0.10;;;;;;;;;;4147211;28;20486;-56
2022/02/20 09:33:23;;;;;;;0.08;0.08;;;;;;;;;;4146495;28;20068;-57
2022/02/20 09:35:25;;;;;;;0.20;0.10;;;;;;;;;;4142687;28;20054;-57
2022/02/20 09:37:27;;;;;;;0.30;0.20;;;;;;;;;;4130770;28;20062;-57
2022/02/20 09:39:28;;;;;;;0.10;0.10;;;;;;;;;;4113372;28;20546;-57
2022/02/20 09:41:31;;;;;;;0.10;0.10;;;;;;;;;;4130832;28;20058;-56
2022/02/20 09:43:33;;;;;;;0.00;0.00;;;;;;;;;;4130778;28;20050;-57
2022/02/20 09:45:34;;;;;;;0.10;0.10;;;;;;;;;;4130621;28;20156;-58
2022/02/20 09:47:39;;;;;;;0.00;0.00;;;;;;;;;;4130450;28;20050;-57
2022/02/20 09:49:40;;;;;;;0.03;0.03;;;;;;;;;;4130634;28;20432;-56
2022/02/20 09:51:41;;;;;;;0.03;0.03;;;;;;;;;;4130428;28;20096;-56
2022/02/20 09:53:42;;;;;;;0.10;0.10;;;;;;;;;;4130511;28;20470;-57
2022/02/20 09:55:46;;;;;;;0.10;0.10;;;;;;;;;;4129407;28;20098;-58
2022/02/20 09:57:46;;;;;;;0.10;0.10;;;;;;;;;;4130242;28;20556;-58
2022/02/20 09:59:48;;;;;;;0.08;0.08;;;;;;;;;;4130475;28;20058;-57
2022/02/20 10:02:04;;;;;;;0.00;0.00;;;;;;;;;;4114840;28;20411;-56
2022/02/20 10:04:12;;;;;;;0.17;0.17;;;;;;;;;;4146478;28;20154;-57
2022/02/20 10:06:17;;;;;;;0.22;0.10;;;;;;;;;;4129435;28;20086;-57
2022/02/20 10:08:18;;;;;;;0.20;0.10;;;;;;;;;;4146650;28;20065;-56
2022/02/20 10:10:25;;;;;;;0.20;0.17;;;;;;;;;;4146567;28;20058;-57
2022/02/20 10:12:29;;;;;;;0.30;0.20;;;;;;;;;;4146556;28;20053;-57
2022/02/20 10:14:33;;;;;;;0.10;0.10;;;;;;;;;;4146412;28;20049;-56
2022/02/20 10:16:34;;;;;;;0.10;0.10;;;;;;;;;;4146561;28;20108;-56
2022/02/20 10:18:36;;;;;;;0.00;0.00;;;;;;;;;;4144844;28;20088;-57
2022/02/20 10:21:02;;;;;;;0.10;0.10;;;;;;;;;;4146510;28;20049;-57
2022/02/20 10:23:22;;;;;;;0.10;0.10;;;;;;;;;;4146246;28;20081;-58
2022/02/20 10:25:45;;;;;;;0.17;0.08;;;;;;;;;;4146267;28;20053;-57
2022/02/20 10:28:15;;;;;;;0.00;0.00;;;;;;;;;;4095847;29;20090;-57
2022/02/20 10:30:28;;;;;;;0.10;0.05;;;;;;;;;;4128708;28;20109;-57
2022/02/20 10:32:32;;;;;;;0.10;0.10;;;;;;;;;;4145868;28;20104;-58
2022/02/20 10:34:33;;;;;;;0.10;0.10;;;;;;;;;;4146208;28;20568;-57
2022/02/20 10:37:07;;;;;;;0.20;0.20;;;;;;;;;;4131861;28;20062;-58
2022/02/20 10:39:38;;;;;;;0.10;0.10;;;;;;;;;;4076663;28;20171;-57
2022/02/20 10:41:40;;;;;;;0.00;0.00;;;;;;;;;;4130069;28;20105;-56
2022/02/20 10:43:42;;;;;;;0.20;0.10;;;;;;;;;;4129887;28;20116;-57
2022/02/20 10:45:43;;;;;;;0.10;0.10;;;;;;;;;;4129644;28;20409;-57
2022/02/20 10:47:44;;;;;;;0.13;0.13;;;;;;;;;;4129460;28;20062;-57
2022/02/20 10:49:45;;;;;;;0.43;0.17;;;;;;;;;;4129869;28;20058;-57
2022/02/20 10:51:47;;;;;;;0.08;0.08;;;;;;;;;;4128417;28;20113;-57
2022/02/20 10:53:49;;;;;;;0.10;0.10;;;;;;;;;;4129903;28;20265;-57
2022/02/20 10:55:51;;;;;;;0.10;0.10;;;;;;;;;;4130034;28;20066;-56
2022/02/20 10:57:52;;;;;;;0.10;0.10;;;;;;;;;;4129453;28;20256;-56
2022/02/20 10:59:53;;;;;;;0.10;0.10;;;;;;;;;;4129788;28;20069;-58
2022/02/20 11:02:12;;;;;;;0.00;0.00;;;;;;;;;;4129365;28;20104;-56
2022/02/20 11:04:15;;;;;;;0.10;0.00;;;;;;;;;;4129914;28;20112;-56
2022/02/20 11:06:17;;;;;;;0.43;0.10;;;;;;;;;;4129672;28;20438;-57
2022/02/20 11:08:20;;;;;;;0.22;0.10;;;;;;;;;;4129586;28;20461;-56
2022/02/20 11:10:22;;;;;;;0.10;0.10;;;;;;;;;;4129634;28;20059;-57
2022/02/20 11:12:23;;;;;;;0.10;0.08;;;;;;;;;;4129803;28;20050;-55
2022/02/20 11:14:26;;;;;;;0.10;0.10;;;;;;;;;;4132008;28;20069;-57
2022/02/20 11:16:30;;;;;;;0.08;0.08;;;;;;;;;;4115590;28;20503;-57
2022/02/20 11:18:31;;;;;;;0.13;0.10;;;;;;;;;;4132615;28;20054;-57
2022/02/20 11:20:33;;;;;;;0.10;0.10;;;;;;;;;;4131759;28;20093;-56
2022/02/20 11:22:36;;;;;;;0.00;0.00;;;;;;;;;;4131444;28;20495;-56
2022/02/20 11:24:37;;;;;;;0.10;0.10;;;;;;;;;;4132859;28;20058;-55
2022/02/20 11:26:42;;;;;;;0.10;0.10;;;;;;;;;;4131286;28;20420;-57
2022/02/20 11:28:43;;;;;;;0.08;0.08;;;;;;;;;;4133104;28;20062;-57
2022/02/20 11:30:45;;;;;;;0.20;0.10;;;;;;;;;;4132620;28;20548;-56
2022/02/20 11:32:46;;;;;;;0.08;0.00;;;;;;;;;;4130865;28;20080;-57
2022/02/20 11:34:48;;;;;;;0.10;0.10;;;;;;;;;;4131421;28;20085;-57
2022/02/20 11:36:52;;;;;;;0.10;0.10;;;;;;;;;;4146988;28;20058;-56
2022/02/20 11:39:12;;;;;;;0.00;0.00;;;;;;;;;;4132694;28;20050;-57
2022/02/20 11:41:13;;;;;;;0.10;0.10;;;;;;;;;;4132384;28;20491;-57
2022/02/20 11:43:14;;;;;;;0.10;0.10;;;;;;;;;;4132715;28;20054;-56
2022/02/20 11:45:16;;;;;;;0.10;0.10;;;;;;;;;;4147632;28;20314;-57
2022/02/20 11:47:35;;;;;;;0.20;0.10;;;;;;;;;;4132383;28;20062;-58
2022/02/20 11:49:36;;;;;;;0.10;0.05;;;;;;;;;;4132629;28;20403;-57
2022/02/20 11:51:37;;;;;;;0.05;0.00;;;;;;;;;;4132402;28;20576;-56
2022/02/20 11:53:38;;;;;;;0.05;0.00;;;;;;;;;;4132471;28;20637;-57
2022/02/20 11:55:44;;;;;;;0.00;0.00;;;;;;;;;;4132606;28;20058;-57
2022/02/20 11:57:45;;;;;;;0.10;0.00;;;;;;;;;;4147152;28;20119;-57
2022/02/20 12:00:13;;;;;;;0.00;0.00;;;;;;;;;;4132407;28;20054;-56
2022/02/20 12:02:14;;;;;;;0.10;0.10;;;;;;;;;;4130323;28;20090;-57
2022/02/20 12:04:15;;;;;;;0.10;0.10;;;;;;;;;;4132290;28;20066;-56
2022/02/20 12:06:17;;;;;;;0.10;0.10;;;;;;;;;;4146934;28;20065;-57
2022/02/20 12:08:34;;;;;;;0.10;0.10;;;;;;;;;;4132119;28;20066;-57
2022/02/20 12:10:37;;;;;;;0.00;0.00;;;;;;;;;;4131974;28;20399;-57
2022/02/20 12:12:38;;;;;;;0.03;0.03;;;;;;;;;;4131690;28;20066;-57
2022/02/20 12:14:39;;;;;;;0.10;0.10;;;;;;;;;;4146726;28;20413;-56
2022/02/20 12:16:46;;;;;;;0.10;0.10;;;;;;;;;;4146606;28;20070;-57
2022/02/20 12:19:23;;;;;;;0.00;0.00;;;;;;;;;;4131963;28;20537;-55
2022/02/20 12:21:24;;;;;;;0.10;0.10;;;;;;;;;;4131958;28;20180;-57
2022/02/20 12:23:26;;;;;;;0.00;0.00;;;;;;;;;;4130224;28;20117;-57
2022/02/20 12:25:36;;;;;;;0.00;0.00;;;;;;;;;;4131361;28;20054;-57
2022/02/20 12:27:38;;;;;;;0.10;0.10;;;;;;;;;;4146774;28;20065;-57
2022/02/20 12:29:46;;;;;;;0.10;0.10;;;;;;;;;;4146710;28;20470;-57